Time;durP1;ratioP1;P1;durP2;ratioP2;P2;SDS_P1;SDS_P2;PMS_P1;PMS_P2;Temp;Humidity;BMP_temperature;BMP_pressure;BME280_temperature;BME280_humidity;BME280_pressure;Samples;Min_cycle;Max_cycle;Signal;HPM_P1;HPM_P2
2023/04/24 00:00:32;;;;;;;0.98;0.65;;;;;;;;;;4968974;28;20109;-77
2023/04/24 00:02:58;;;;;;;0.80;0.75;;;;;;;;;;4952902;28;20718;-77
2023/04/24 00:05:24;;;;;;;1.00;0.60;;;;;;;;;;4968685;28;20629;-77
2023/04/24 00:07:52;;;;;;;1.10;0.70;;;;;;;;;;4942144;28;20062;-77
2023/04/24 00:10:18;;;;;;;0.85;0.68;;;;;;;;;;4960438;28;20385;-76
2023/04/24 00:12:44;;;;;;;0.50;0.50;;;;;;;;;;4967780;28;20034;-76
2023/04/24 00:15:10;;;;;;;0.60;0.60;;;;;;;;;;4974287;28;20048;-76
2023/04/24 00:17:35;;;;;;;1.38;0.60;;;;;;;;;;4966283;28;20031;-77
2023/04/24 00:20:04;;;;;;;1.98;0.60;;;;;;;;;;4972027;28;20042;-77
2023/04/24 00:22:30;;;;;;;0.77;0.77;;;;;;;;;;4946087;28;20137;-77
2023/04/24 00:24:56;;;;;;;2.78;1.00;;;;;;;;;;4968665;28;20073;-76
2023/04/24 00:27:21;;;;;;;0.90;0.68;;;;;;;;;;4966251;28;20030;-77
2023/04/24 00:29:47;;;;;;;1.42;0.77;;;;;;;;;;4967004;28;20724;-77
2023/04/24 00:32:13;;;;;;;1.67;0.90;;;;;;;;;;4953156;28;20042;-76
2023/04/24 00:34:38;;;;;;;1.00;0.82;;;;;;;;;;4967363;28;20038;-77
2023/04/24 00:37:03;;;;;;;0.85;0.70;;;;;;;;;;4917969;28;20097;-77
2023/04/24 00:39:29;;;;;;;1.45;0.70;;;;;;;;;;4955272;28;20046;-77
2023/04/24 00:41:55;;;;;;;0.82;0.60;;;;;;;;;;4967429;28;20050;-77
2023/04/24 00:44:20;;;;;;;1.00;0.70;;;;;;;;;;4965903;28;20046;-77
2023/04/24 00:46:47;;;;;;;2.05;0.70;;;;;;;;;;4973037;28;20046;-77
2023/04/24 00:49:13;;;;;;;1.50;0.63;;;;;;;;;;4958048;28;20038;-77
2023/04/24 00:51:40;;;;;;;0.75;0.63;;;;;;;;;;4941030;28;20042;-77
2023/04/24 00:54:06;;;;;;;1.92;1.00;;;;;;;;;;4967904;28;20804;-77
2023/04/24 00:56:31;;;;;;;0.70;0.70;;;;;;;;;;4966262;28;20128;-76
2023/04/24 00:58:57;;;;;;;1.27;0.70;;;;;;;;;;4951040;28;20034;-76
2023/04/24 01:01:23;;;;;;;0.70;0.50;;;;;;;;;;4971502;28;20082;-76
2023/04/24 01:03:50;;;;;;;1.20;0.70;;;;;;;;;;4955904;28;20066;-75
2023/04/24 01:06:16;;;;;;;0.55;0.55;;;;;;;;;;4944734;28;20044;-76
2023/04/24 01:08:43;;;;;;;0.57;0.57;;;;;;;;;;4937893;28;20041;-75
2023/04/24 01:11:08;;;;;;;0.60;0.60;;;;;;;;;;4951419;28;20424;-75
2023/04/24 01:13:34;;;;;;;1.15;0.73;;;;;;;;;;4959543;28;20505;-76
2023/04/24 01:16:00;;;;;;;1.50;0.70;;;;;;;;;;4962871;28;20045;-76
2023/04/24 01:18:27;;;;;;;1.45;0.70;;;;;;;;;;4940424;28;20381;-76
2023/04/24 01:20:55;;;;;;;0.60;0.60;;;;;;;;;;4969040;28;20038;-76
2023/04/24 01:23:20;;;;;;;1.08;0.60;;;;;;;;;;4961793;28;20121;-76
2023/04/24 01:25:46;;;;;;;0.90;0.80;;;;;;;;;;4966205;28;20121;-76
2023/04/24 01:28:13;;;;;;;2.05;0.77;;;;;;;;;;4965946;28;20947;-76
2023/04/24 01:30:39;;;;;;;1.23;0.80;;;;;;;;;;4959133;28;20053;-77
2023/04/24 01:33:05;;;;;;;1.63;0.88;;;;;;;;;;4954640;28;20054;-78
2023/04/24 01:35:30;;;;;;;0.60;0.60;;;;;;;;;;4950693;28;20485;-78
2023/04/24 01:37:56;;;;;;;0.70;0.70;;;;;;;;;;4964502;28;20451;-78
2023/04/24 01:40:21;;;;;;;2.78;0.70;;;;;;;;;;4951346;28;20645;-78
2023/04/24 01:42:47;;;;;;;1.15;0.60;;;;;;;;;;4969658;28;20046;-79
2023/04/24 01:45:15;;;;;;;1.02;0.73;;;;;;;;;;4944465;28;20130;-78
2023/04/24 01:47:41;;;;;;;0.98;0.60;;;;;;;;;;4957771;28;20031;-78
2023/04/24 01:50:07;;;;;;;1.33;0.50;;;;;;;;;;4969801;28;20052;-77
2023/04/24 01:52:33;;;;;;;0.73;0.73;;;;;;;;;;4966402;28;20089;-77
2023/04/24 01:55:01;;;;;;;1.10;0.63;;;;;;;;;;4967465;28;20200;-77
2023/04/24 01:57:27;;;;;;;1.65;0.77;;;;;;;;;;4955195;28;20042;-77
2023/04/24 01:59:52;;;;;;;1.55;0.70;;;;;;;;;;4936781;28;20053;-78
2023/04/24 02:02:17;;;;;;;0.60;0.60;;;;;;;;;;4954820;28;20049;-78
2023/04/24 02:04:43;;;;;;;2.38;0.70;;;;;;;;;;4961138;28;20038;-77
2023/04/24 02:07:08;;;;;;;0.50;0.50;;;;;;;;;;4967223;28;20100;-77
2023/04/24 02:09:34;;;;;;;0.60;0.60;;;;;;;;;;4947499;28;20046;-77
2023/04/24 02:12:00;;;;;;;1.58;0.82;;;;;;;;;;4951391;28;20106;-77
2023/04/24 02:14:26;;;;;;;0.88;0.80;;;;;;;;;;4941836;28;20107;-78
2023/04/24 02:16:51;;;;;;;0.65;0.65;;;;;;;;;;4973603;28;20054;-77
2023/04/24 02:19:16;;;;;;;0.57;0.57;;;;;;;;;;4965415;28;20121;-77
2023/04/24 02:21:42;;;;;;;1.50;0.73;;;;;;;;;;4963407;28;20042;-77
2023/04/24 02:24:07;;;;;;;0.70;0.65;;;;;;;;;;4954834;28;20595;-77
2023/04/24 02:26:33;;;;;;;1.40;0.70;;;;;;;;;;4976532;28;20038;-77
2023/04/24 02:28:58;;;;;;;0.50;0.50;;;;;;;;;;4952059;28;20673;-77
2023/04/24 02:31:23;;;;;;;1.67;0.65;;;;;;;;;;4972366;28;20054;-77
2023/04/24 02:33:49;;;;;;;1.33;0.73;;;;;;;;;;4969203;28;20045;-77
2023/04/24 02:36:14;;;;;;;1.23;0.70;;;;;;;;;;4955736;28;20038;-77
2023/04/24 02:38:40;;;;;;;2.63;0.88;;;;;;;;;;4957300;28;20039;-77
2023/04/24 02:41:06;;;;;;;2.17;0.50;;;;;;;;;;4953471;28;20499;-78
2023/04/24 02:43:32;;;;;;;0.70;0.70;;;;;;;;;;4950568;28;20038;-77
2023/04/24 02:45:58;;;;;;;1.17;0.77;;;;;;;;;;4973947;28;20511;-78
2023/04/24 02:48:23;;;;;;;0.75;0.75;;;;;;;;;;4973935;28;20073;-78
2023/04/24 02:50:49;;;;;;;0.82;0.82;;;;;;;;;;4968741;28;20084;-78
2023/04/24 02:53:14;;;;;;;1.15;0.80;;;;;;;;;;4970818;28;20038;-78
2023/04/24 02:55:39;;;;;;;2.38;1.02;;;;;;;;;;4972838;28;20435;-77
2023/04/24 02:58:05;;;;;;;1.77;0.60;;;;;;;;;;4950527;28;20043;-78
2023/04/24 03:00:31;;;;;;;2.00;1.10;;;;;;;;;;4971566;28;20099;-78
2023/04/24 03:02:56;;;;;;;2.45;0.95;;;;;;;;;;4968792;28;20574;-77
2023/04/24 03:05:22;;;;;;;1.20;1.10;;;;;;;;;;4973659;28;20041;-77
2023/04/24 03:07:47;;;;;;;1.52;1.13;;;;;;;;;;4972881;28;20045;-78
2023/04/24 03:10:13;;;;;;;0.98;0.98;;;;;;;;;;4960036;28;20044;-77
2023/04/24 03:12:39;;;;;;;1.20;1.17;;;;;;;;;;4946212;28;20044;-76
2023/04/24 03:15:05;;;;;;;1.40;1.30;;;;;;;;;;4973555;28;20046;-77
2023/04/24 03:17:30;;;;;;;1.83;1.10;;;;;;;;;;4957243;28;20041;-77
2023/04/24 03:19:56;;;;;;;1.25;1.05;;;;;;;;;;4973917;28;20026;-77
2023/04/24 03:22:21;;;;;;;2.03;1.23;;;;;;;;;;4968285;28;20055;-77
2023/04/24 03:24:46;;;;;;;1.33;1.10;;;;;;;;;;4950313;28;20034;-76
2023/04/24 03:27:12;;;;;;;1.42;1.05;;;;;;;;;;4973851;28;20046;-77
2023/04/24 03:29:37;;;;;;;1.40;1.20;;;;;;;;;;4972815;28;20062;-76
2023/04/24 03:32:02;;;;;;;1.23;0.82;;;;;;;;;;4970846;28;20042;-76
2023/04/24 03:34:28;;;;;;;2.03;1.27;;;;;;;;;;4963775;28;20038;-77
2023/04/24 03:36:53;;;;;;;2.10;1.17;;;;;;;;;;4967539;28;20042;-77
2023/04/24 03:39:18;;;;;;;2.35;1.38;;;;;;;;;;4951915;28;20123;-76
2023/04/24 03:41:44;;;;;;;1.27;0.80;;;;;;;;;;4969580;28;20045;-76
2023/04/24 03:44:09;;;;;;;1.70;1.25;;;;;;;;;;4970012;28;20042;-77
2023/04/24 03:46:35;;;;;;;1.77;1.17;;;;;;;;;;4953534;28;20062;-77
2023/04/24 03:49:00;;;;;;;1.75;1.27;;;;;;;;;;4972873;28;20049;-77
2023/04/24 03:51:27;;;;;;;1.85;1.55;;;;;;;;;;4971400;28;20062;-77
2023/04/24 03:53:53;;;;;;;0.98;0.77;;;;;;;;;;4924815;28;20046;-78
2023/04/24 03:56:18;;;;;;;1.55;1.20;;;;;;;;;;4958841;28;20423;-77
2023/04/24 03:58:44;;;;;;;2.30;1.58;;;;;;;;;;4967375;28;20060;-77
2023/04/24 04:01:11;;;;;;;3.55;1.48;;;;;;;;;;4970271;28;20039;-77
2023/04/24 04:03:36;;;;;;;1.95;1.20;;;;;;;;;;4950977;28;20521;-76
2023/04/24 04:06:02;;;;;;;1.40;1.30;;;;;;;;;;4965249;28;20127;-76
2023/04/24 04:08:27;;;;;;;1.42;1.30;;;;;;;;;;4944545;28;20117;-77
2023/04/24 04:10:53;;;;;;;2.58;1.70;;;;;;;;;;4964752;28;20120;-77
2023/04/24 04:13:18;;;;;;;1.30;1.20;;;;;;;;;;4958026;28;20588;-77
2023/04/24 04:15:43;;;;;;;3.13;1.50;;;;;;;;;;4967698;28;20056;-78
2023/04/24 04:18:09;;;;;;;1.73;1.25;;;;;;;;;;4967975;28;20085;-78
2023/04/24 04:20:34;;;;;;;2.58;1.42;;;;;;;;;;4970820;28;20053;-77
2023/04/24 04:23:00;;;;;;;1.30;1.20;;;;;;;;;;4945577;28;20504;-77
2023/04/24 04:25:25;;;;;;;1.30;1.20;;;;;;;;;;4956984;28;20081;-76
2023/04/24 04:27:52;;;;;;;2.13;1.13;;;;;;;;;;4963204;28;20030;-77
2023/04/24 04:30:18;;;;;;;1.40;1.00;;;;;;;;;;4967528;28;20110;-77
2023/04/24 04:32:44;;;;;;;1.65;1.40;;;;;;;;;;4969502;28;20062;-77
2023/04/24 04:35:09;;;;;;;2.58;1.63;;;;;;;;;;4957059;28;20046;-78
2023/04/24 04:37:35;;;;;;;1.40;1.30;;;;;;;;;;4965249;28;20144;-78
2023/04/24 04:40:06;;;;;;;0.82;0.80;;;;;;;;;;4954185;28;20039;-77
2023/04/24 04:42:33;;;;;;;1.58;1.25;;;;;;;;;;4963086;28;20042;-77
2023/04/24 04:45:00;;;;;;;1.77;1.27;;;;;;;;;;4968640;28;20038;-77
2023/04/24 04:47:26;;;;;;;1.50;1.33;;;;;;;;;;4967915;28;20423;-77
2023/04/24 04:49:52;;;;;;;1.73;1.38;;;;;;;;;;4931820;28;20134;-76
2023/04/24 04:52:18;;;;;;;1.05;0.90;;;;;;;;;;4950487;28;20133;-76
2023/04/24 04:54:44;;;;;;;2.67;1.05;;;;;;;;;;4967458;28;20035;-76
2023/04/24 04:57:10;;;;;;;2.40;1.10;;;;;;;;;;4969154;28;20815;-77
2023/04/24 04:59:35;;;;;;;2.90;1.30;;;;;;;;;;4972584;28;20062;-76
2023/04/24 05:02:01;;;;;;;0.95;0.85;;;;;;;;;;4941187;28;20077;-77
2023/04/24 05:04:26;;;;;;;1.95;1.10;;;;;;;;;;4919502;28;20487;-77
2023/04/24 05:06:52;;;;;;;1.77;0.70;;;;;;;;;;4955311;28;20128;-77
2023/04/24 05:09:18;;;;;;;2.03;1.30;;;;;;;;;;4962604;28;20836;-77
2023/04/24 05:11:43;;;;;;;1.58;1.10;;;;;;;;;;4943921;28;20471;-77
2023/04/24 05:14:09;;;;;;;2.45;1.10;;;;;;;;;;4960108;28;20581;-79
2023/04/24 05:16:34;;;;;;;0.93;0.73;;;;;;;;;;4940407;28;20050;-79
2023/04/24 05:19:00;;;;;;;1.30;1.05;;;;;;;;;;4945198;28;20028;-79
2023/04/24 05:21:26;;;;;;;1.27;1.10;;;;;;;;;;4957703;28;20056;-78
2023/04/24 05:23:52;;;;;;;1.23;1.05;;;;;;;;;;4968601;28;20045;-78
2023/04/24 05:26:17;;;;;;;1.02;0.90;;;;;;;;;;4971606;28;20076;-77
2023/04/24 05:28:43;;;;;;;6.65;1.73;;;;;;;;;;4965549;28;20042;-76
2023/04/24 05:31:08;;;;;;;1.95;1.00;;;;;;;;;;4935336;28;20034;-76
2023/04/24 05:33:33;;;;;;;1.77;1.00;;;;;;;;;;4966253;28;20571;-77
2023/04/24 05:35:59;;;;;;;1.10;0.85;;;;;;;;;;4963980;28;20034;-78
2023/04/24 05:38:24;;;;;;;1.10;0.90;;;;;;;;;;4952921;28;20037;-78
2023/04/24 05:40:49;;;;;;;1.65;1.00;;;;;;;;;;4975700;28;20058;-78
2023/04/24 05:43:15;;;;;;;1.08;0.98;;;;;;;;;;4968827;28;20046;-76
2023/04/24 05:45:40;;;;;;;1.60;1.00;;;;;;;;;;4933231;28;20159;-76
2023/04/24 05:48:05;;;;;;;1.63;0.80;;;;;;;;;;4974603;28;20635;-78
2023/04/24 05:50:31;;;;;;;0.90;0.80;;;;;;;;;;4974726;28;20057;-78
2023/04/24 05:52:59;;;;;;;1.70;0.77;;;;;;;;;;4947465;28;20125;-78
2023/04/24 05:55:25;;;;;;;1.67;0.82;;;;;;;;;;4955391;28;20041;-78
2023/04/24 05:57:51;;;;;;;1.48;0.90;;;;;;;;;;4967159;28;20218;-77
2023/04/24 06:00:19;;;;;;;1.40;0.60;;;;;;;;;;4950120;28;20821;-76
2023/04/24 06:02:45;;;;;;;0.88;0.70;;;;;;;;;;4968811;28;20042;-77
2023/04/24 06:05:10;;;;;;;1.00;0.90;;;;;;;;;;4950066;28;20576;-78
2023/04/24 06:07:36;;;;;;;1.10;0.70;;;;;;;;;;4970648;28;20121;-76
2023/04/24 06:10:01;;;;;;;1.02;0.70;;;;;;;;;;4954825;28;20776;-77
2023/04/24 06:12:27;;;;;;;0.90;0.65;;;;;;;;;;4956411;28;20039;-78
2023/04/24 06:14:54;;;;;;;0.73;0.73;;;;;;;;;;4937024;28;20055;-77
2023/04/24 06:17:19;;;;;;;0.60;0.45;;;;;;;;;;4968876;28;20046;-78
2023/04/24 06:19:44;;;;;;;0.77;0.77;;;;;;;;;;4968635;28;20033;-78
2023/04/24 06:22:10;;;;;;;0.50;0.50;;;;;;;;;;4972034;28;20101;-78
2023/04/24 06:24:36;;;;;;;1.83;0.68;;;;;;;;;;4974856;28;20065;-78
2023/04/24 06:27:01;;;;;;;0.93;0.70;;;;;;;;;;4942578;28;20144;-77
2023/04/24 06:29:27;;;;;;;2.47;0.65;;;;;;;;;;4963457;28;20045;-77
2023/04/24 06:31:53;;;;;;;0.85;0.65;;;;;;;;;;4957154;28;20042;-77
2023/04/24 06:34:18;;;;;;;0.85;0.68;;;;;;;;;;4973517;28;20538;-77
2023/04/24 06:36:44;;;;;;;1.40;0.60;;;;;;;;;;4957011;28;20034;-77
2023/04/24 06:39:09;;;;;;;0.65;0.65;;;;;;;;;;4933273;28;20039;-77
2023/04/24 06:41:35;;;;;;;0.68;0.65;;;;;;;;;;4919835;28;20110;-77
2023/04/24 06:44:00;;;;;;;1.58;0.80;;;;;;;;;;4957981;28;20047;-76
2023/04/24 06:46:27;;;;;;;0.57;0.57;;;;;;;;;;4966163;28;20038;-77
2023/04/24 06:48:55;;;;;;;0.90;0.80;;;;;;;;;;4948505;28;20043;-78
2023/04/24 06:51:24;;;;;;;0.65;0.60;;;;;;;;;;4946264;28;20042;-76
2023/04/24 06:53:51;;;;;;;0.73;0.60;;;;;;;;;;4966550;28;20034;-77
2023/04/24 06:56:16;;;;;;;1.50;0.77;;;;;;;;;;4944346;28;20046;-77
2023/04/24 06:58:42;;;;;;;1.20;0.80;;;;;;;;;;4955389;28;20073;-76
2023/04/24 07:01:07;;;;;;;0.57;0.52;;;;;;;;;;4937189;28;20034;-76
2023/04/24 07:03:32;;;;;;;0.65;0.45;;;;;;;;;;4965940;28;20674;-76
2023/04/24 07:05:58;;;;;;;0.80;0.80;;;;;;;;;;4964961;28;20057;-76
2023/04/24 07:08:23;;;;;;;0.60;0.60;;;;;;;;;;4948181;28;20034;-76
2023/04/24 07:10:50;;;;;;;0.63;0.60;;;;;;;;;;4939978;28;20142;-76
2023/04/24 07:13:16;;;;;;;1.60;0.77;;;;;;;;;;4964929;28;20116;-76
2023/04/24 07:15:41;;;;;;;1.13;0.70;;;;;;;;;;4965410;28;20519;-76
2023/04/24 07:18:07;;;;;;;1.50;0.70;;;;;;;;;;4972334;28;20042;-77
2023/04/24 07:20:33;;;;;;;1.20;0.70;;;;;;;;;;4951651;28;20117;-78
2023/04/24 07:22:58;;;;;;;1.27;0.80;;;;;;;;;;4961094;28;20046;-77
2023/04/24 07:25:23;;;;;;;1.33;0.70;;;;;;;;;;4958212;28;20044;-77
2023/04/24 07:27:49;;;;;;;0.70;0.70;;;;;;;;;;4970073;28;20121;-77
2023/04/24 07:30:15;;;;;;;2.15;0.90;;;;;;;;;;4957053;28;20094;-77
2023/04/24 07:32:40;;;;;;;2.97;0.80;;;;;;;;;;4948866;28;20547;-77
2023/04/24 07:35:06;;;;;;;0.93;0.82;;;;;;;;;;4959573;28;20707;-77
2023/04/24 07:37:31;;;;;;;0.40;0.40;;;;;;;;;;4953295;28;20069;-77
2023/04/24 07:39:57;;;;;;;0.60;0.60;;;;;;;;;;4960859;28;20185;-77
2023/04/24 07:42:22;;;;;;;1.00;0.77;;;;;;;;;;4950002;28;20038;-78
2023/04/24 07:44:47;;;;;;;1.00;0.80;;;;;;;;;;4963497;28;20536;-77
2023/04/24 07:47:16;;;;;;;0.75;0.45;;;;;;;;;;4966785;28;20053;-78
2023/04/24 07:49:42;;;;;;;0.70;0.70;;;;;;;;;;4947554;28;20086;-78
2023/04/24 07:52:07;;;;;;;1.38;0.80;;;;;;;;;;4927199;28;20066;-78
2023/04/24 07:54:33;;;;;;;0.70;0.70;;;;;;;;;;4965033;28;20046;-78
2023/04/24 07:56:58;;;;;;;0.75;0.60;;;;;;;;;;4951999;28;20034;-77
2023/04/24 07:59:24;;;;;;;1.63;1.00;;;;;;;;;;4957684;28;20034;-77
2023/04/24 08:01:49;;;;;;;0.95;0.95;;;;;;;;;;4955750;28;20050;-77
2023/04/24 08:04:15;;;;;;;1.45;1.33;;;;;;;;;;4968545;28;20046;-77
2023/04/24 08:06:40;;;;;;;1.70;0.82;;;;;;;;;;4945394;28;20042;-77
2023/04/24 08:09:06;;;;;;;0.82;0.75;;;;;;;;;;4966838;28;20116;-78
2023/04/24 08:11:31;;;;;;;1.20;1.10;;;;;;;;;;4965925;28;20454;-79
2023/04/24 08:13:57;;;;;;;1.42;0.80;;;;;;;;;;4969815;28;20053;-78
2023/04/24 08:16:25;;;;;;;1.42;1.00;;;;;;;;;;4970841;28;20045;-78
2023/04/24 08:18:51;;;;;;;0.75;0.75;;;;;;;;;;4969565;28;20137;-77
2023/04/24 08:21:20;;;;;;;1.60;0.93;;;;;;;;;;4925189;28;20110;-78
2023/04/24 08:23:46;;;;;;;2.00;1.02;;;;;;;;;;4966922;28;20037;-77
2023/04/24 08:26:12;;;;;;;1.48;1.35;;;;;;;;;;4952879;28;20430;-77
2023/04/24 08:28:37;;;;;;;1.70;1.33;;;;;;;;;;4958201;28;20038;-77
2023/04/24 08:31:03;;;;;;;0.93;0.80;;;;;;;;;;4954932;28;20066;-78
2023/04/24 08:33:34;;;;;;;1.13;1.02;;;;;;;;;;4956738;28;20038;-78
2023/04/24 08:36:05;;;;;;;2.28;1.20;;;;;;;;;;4939340;28;20491;-78
2023/04/24 08:38:31;;;;;;;1.05;0.95;;;;;;;;;;4951047;28;20545;-78
2023/04/24 08:40:59;;;;;;;5.88;1.15;;;;;;;;;;4960483;28;20037;-79
2023/04/24 08:43:25;;;;;;;2.58;1.45;;;;;;;;;;4967992;28;20042;-78
2023/04/24 08:45:51;;;;;;;2.00;1.17;;;;;;;;;;4962892;28;20116;-79
2023/04/24 08:48:17;;;;;;;1.58;1.40;;;;;;;;;;4955992;28;21963;-78
2023/04/24 08:50:44;;;;;;;1.95;1.40;;;;;;;;;;4959679;28;20553;-78
2023/04/24 08:53:10;;;;;;;0.85;0.85;;;;;;;;;;4966142;28;20038;-78
2023/04/24 08:55:37;;;;;;;1.17;0.80;;;;;;;;;;4952075;28;20312;-78
2023/04/24 08:58:03;;;;;;;1.17;1.08;;;;;;;;;;4965188;28;20109;-79
2023/04/24 09:00:29;;;;;;;1.40;0.70;;;;;;;;;;4950065;28;20042;-78
2023/04/24 09:02:55;;;;;;;1.40;1.10;;;;;;;;;;4956134;28;20115;-78
2023/04/24 09:05:22;;;;;;;2.00;1.20;;;;;;;;;;4969442;28;20063;-78
2023/04/24 09:07:54;;;;;;;1.48;1.38;;;;;;;;;;4964944;28;20049;-78
2023/04/24 09:10:21;;;;;;;1.13;1.10;;;;;;;;;;4966457;28;20043;-78
2023/04/24 09:12:46;;;;;;;1.20;1.10;;;;;;;;;;4962221;28;20046;-77
2023/04/24 09:15:12;;;;;;;2.15;1.70;;;;;;;;;;4934682;28;20520;-78
2023/04/24 09:17:38;;;;;;;1.27;1.15;;;;;;;;;;4957628;28;20039;-78
2023/04/24 09:20:04;;;;;;;2.13;1.40;;;;;;;;;;4964117;28;20154;-79
2023/04/24 09:22:30;;;;;;;1.67;1.42;;;;;;;;;;4952720;28;20054;-78
2023/04/24 09:25:07;;;;;;;1.42;1.33;;;;;;;;;;4974931;28;20038;-78
2023/04/24 09:27:33;;;;;;;2.42;1.52;;;;;;;;;;4940361;28;20116;-79
2023/04/24 09:30:00;;;;;;;1.83;1.55;;;;;;;;;;4958009;28;20121;-77
2023/04/24 09:32:26;;;;;;;1.15;1.10;;;;;;;;;;4967085;28;20544;-78
2023/04/24 09:35:11;;;;;;;2.35;1.23;;;;;;;;;;4967073;28;20046;-77
2023/04/24 09:37:38;;;;;;;1.75;1.10;;;;;;;;;;4953886;28;20082;-78
2023/04/24 09:40:18;;;;;;;2.95;1.63;;;;;;;;;;4945432;28;20044;-76
2023/04/24 09:42:58;;;;;;;0.77;0.77;;;;;;;;;;4955628;28;20039;-78
2023/04/24 09:45:28;;;;;;;1.60;1.50;;;;;;;;;;4964845;28;20073;-78
2023/04/24 09:47:53;;;;;;;1.50;1.40;;;;;;;;;;4977270;28;20042;-79
2023/04/24 09:50:19;;;;;;;2.67;1.67;;;;;;;;;;4947622;28;20919;-78
2023/04/24 09:52:55;;;;;;;3.25;1.60;;;;;;;;;;4975226;28;20072;-78
2023/04/24 09:55:21;;;;;;;1.90;1.70;;;;;;;;;;4968472;28;20096;-79
2023/04/24 09:57:50;;;;;;;1.40;1.10;;;;;;;;;;4969065;28;20426;-79
2023/04/24 10:00:22;;;;;;;1.45;1.02;;;;;;;;;;4950449;28;20042;-77
2023/04/24 10:03:06;;;;;;;2.15;0.98;;;;;;;;;;4931790;28;20182;-78
2023/04/24 10:05:32;;;;;;;1.30;1.20;;;;;;;;;;4971066;28;20045;-78
2023/04/24 10:08:03;;;;;;;1.80;0.88;;;;;;;;;;4958674;28;20043;-78
2023/04/24 10:10:29;;;;;;;2.55;1.75;;;;;;;;;;4959249;28;20065;-78
2023/04/24 10:12:55;;;;;;;5.00;1.65;;;;;;;;;;4950576;28;20038;-78
2023/04/24 10:15:21;;;;;;;1.95;1.80;;;;;;;;;;4953857;28;20108;-78
2023/04/24 10:17:52;;;;;;;1.33;1.23;;;;;;;;;;4962029;28;20077;-78
2023/04/24 10:20:19;;;;;;;2.45;1.65;;;;;;;;;;4953558;28;20039;-78
2023/04/24 10:22:49;;;;;;;1.73;1.63;;;;;;;;;;4945447;28;20515;-78
2023/04/24 10:25:17;;;;;;;3.33;1.80;;;;;;;;;;4957474;28;20503;-79
2023/04/24 10:27:42;;;;;;;2.55;1.70;;;;;;;;;;4942203;28;20047;-78
2023/04/24 10:30:11;;;;;;;1.90;1.70;;;;;;;;;;4963494;28;20047;-78
2023/04/24 10:32:36;;;;;;;1.95;1.58;;;;;;;;;;4968270;28;20180;-77
2023/04/24 10:35:02;;;;;;;3.53;1.55;;;;;;;;;;4973936;28;20042;-77
2023/04/24 10:37:28;;;;;;;3.05;1.30;;;;;;;;;;4966080;28;20057;-77
2023/04/24 10:39:55;;;;;;;2.55;1.92;;;;;;;;;;4966233;28;20038;-77
2023/04/24 10:42:21;;;;;;;2.55;1.67;;;;;;;;;;4928363;28;20585;-77
2023/04/24 10:44:48;;;;;;;2.55;2.03;;;;;;;;;;4966494;28;20052;-77
2023/04/24 10:47:15;;;;;;;1.10;1.02;;;;;;;;;;4962627;28;20038;-77
2023/04/24 10:49:41;;;;;;;2.10;1.70;;;;;;;;;;4946967;28;20120;-78
2023/04/24 10:52:09;;;;;;;1.50;1.40;;;;;;;;;;4953992;28;20422;-77
2023/04/24 10:54:36;;;;;;;1.77;1.65;;;;;;;;;;4963899;28;20698;-77
2023/04/24 10:57:20;;;;;;;2.25;1.77;;;;;;;;;;4942252;28;20038;-78
2023/04/24 10:59:46;;;;;;;1.88;1.10;;;;;;;;;;4952180;28;20034;-78
2023/04/24 11:02:15;;;;;;;1.50;1.40;;;;;;;;;;4955558;28;20046;-78
2023/04/24 11:04:42;;;;;;;2.95;1.58;;;;;;;;;;4958663;28;20541;-78
2023/04/24 11:07:09;;;;;;;2.00;1.48;;;;;;;;;;4966259;28;20065;-78
2023/04/24 11:09:36;;;;;;;1.80;1.70;;;;;;;;;;4962500;28;20113;-78
2023/04/24 11:12:07;;;;;;;2.00;1.58;;;;;;;;;;4947994;28;20030;-78
2023/04/24 11:14:57;;;;;;;3.08;1.80;;;;;;;;;;4965948;28;20038;-78
2023/04/24 11:17:30;;;;;;;1.73;1.60;;;;;;;;;;4967681;28;20156;-78
2023/04/24 11:20:01;;;;;;;1.50;1.40;;;;;;;;;;4945304;28;20034;-78
2023/04/24 11:22:31;;;;;;;3.00;1.50;;;;;;;;;;4948778;28;20050;-78
2023/04/24 11:25:01;;;;;;;0.90;0.90;;;;;;;;;;4968514;28;20141;-77
2023/04/24 11:27:38;;;;;;;1.20;1.00;;;;;;;;;;4949866;28;20050;-78
2023/04/24 11:30:03;;;;;;;2.22;1.20;;;;;;;;;;4959694;28;20034;-77
2023/04/24 11:32:40;;;;;;;1.63;0.90;;;;;;;;;;4963072;28;20579;-77
2023/04/24 11:35:13;;;;;;;1.27;1.17;;;;;;;;;;4943243;28;20108;-77
2023/04/24 11:37:41;;;;;;;1.20;1.10;;;;;;;;;;4958867;28;20066;-78
2023/04/24 11:40:10;;;;;;;1.50;1.27;;;;;;;;;;4939147;28;20148;-78
2023/04/24 11:42:40;;;;;;;2.45;1.20;;;;;;;;;;4960625;28;20045;-77
2023/04/24 11:45:10;;;;;;;1.47;1.17;;;;;;;;;;4954691;28;20046;-78
2023/04/24 11:47:36;;;;;;;;;;;;;;;;;;4943209;28;20958;-78
2023/04/24 11:50:03;;;;;;;1.13;1.02;;;;;;;;;;4943558;28;19976;-77
2023/04/24 11:52:30;;;;;;;0.95;0.88;;;;;;;;;;4965264;28;20041;-77
2023/04/24 11:54:55;;;;;;;2.10;1.00;;;;;;;;;;4967730;28;20030;-78
2023/04/24 11:57:23;;;;;;;2.10;1.80;;;;;;;;;;4964633;28;20134;-78
2023/04/24 11:59:49;;;;;;;1.27;1.17;;;;;;;;;;4933674;28;20162;-78
2023/04/24 12:02:24;;;;;;;2.20;1.00;;;;;;;;;;4961549;28;20802;-78
2023/04/24 12:04:50;;;;;;;2.05;0.93;;;;;;;;;;4963153;28;20030;-77
2023/04/24 12:07:16;;;;;;;0.68;0.60;;;;;;;;;;4949360;28;20698;-78
2023/04/24 12:09:46;;;;;;;0.68;0.68;;;;;;;;;;4964898;28;20034;-78
2023/04/24 12:12:16;;;;;;;0.80;0.80;;;;;;;;;;4940818;28;20047;-78
2023/04/24 12:14:49;;;;;;;0.60;0.60;;;;;;;;;;4928432;28;20070;-76
2023/04/24 12:17:23;;;;;;;2.10;0.70;;;;;;;;;;4965859;28;20224;-76
2023/04/24 12:19:50;;;;;;;1.30;0.93;;;;;;;;;;4959220;28;20038;-77
2023/04/24 12:22:15;;;;;;;1.33;0.60;;;;;;;;;;4968012;28;20046;-77
2023/04/24 12:25:03;;;;;;;0.82;0.82;;;;;;;;;;4953818;28;20041;-77
2023/04/24 12:27:35;;;;;;;0.70;0.70;;;;;;;;;;4937082;28;20150;-77
2023/04/24 12:30:04;;;;;;;1.20;1.10;;;;;;;;;;4955766;28;20049;-77
2023/04/24 12:32:30;;;;;;;1.30;0.90;;;;;;;;;;4952388;28;20071;-77
2023/04/24 12:34:55;;;;;;;0.70;0.70;;;;;;;;;;4964948;28;20566;-77
2023/04/24 12:37:32;;;;;;;0.90;0.90;;;;;;;;;;4942067;28;20058;-76
2023/04/24 12:40:07;;;;;;;2.58;1.20;;;;;;;;;;4927359;28;20042;-76
2023/04/24 12:42:34;;;;;;;1.80;1.20;;;;;;;;;;4944709;28;20034;-76
2023/04/24 12:45:05;;;;;;;0.90;0.90;;;;;;;;;;4961151;28;20034;-76
2023/04/24 12:47:31;;;;;;;0.57;0.57;;;;;;;;;;4953073;28;20252;-77
2023/04/24 12:49:56;;;;;;;1.30;0.60;;;;;;;;;;4954723;28;20042;-76
2023/04/24 12:52:26;;;;;;;0.52;0.52;;;;;;;;;;4950743;28;20049;-77
2023/04/24 12:54:56;;;;;;;1.23;0.93;;;;;;;;;;4964347;28;20038;-77
2023/04/24 12:57:25;;;;;;;0.80;0.80;;;;;;;;;;4961055;28;20054;-76
2023/04/24 12:59:55;;;;;;;0.88;0.55;;;;;;;;;;4949837;28;20123;-76
2023/04/24 13:02:22;;;;;;;0.60;0.60;;;;;;;;;;4959088;28;20038;-75
2023/04/24 13:04:48;;;;;;;0.73;0.60;;;;;;;;;;4962265;28;20034;-76
2023/04/24 13:07:14;;;;;;;0.52;0.40;;;;;;;;;;4942975;28;20665;-76
2023/04/24 13:09:40;;;;;;;0.50;0.50;;;;;;;;;;4942114;28;20042;-76
2023/04/24 13:12:06;;;;;;;0.45;0.45;;;;;;;;;;4962358;28;20046;-76
2023/04/24 13:14:32;;;;;;;0.50;0.50;;;;;;;;;;4950589;28;20050;-76
2023/04/24 13:16:57;;;;;;;0.45;0.45;;;;;;;;;;4955528;28;20121;-76
2023/04/24 13:19:26;;;;;;;1.58;0.50;;;;;;;;;;4935643;28;20038;-76
2023/04/24 13:21:51;;;;;;;0.63;0.40;;;;;;;;;;4952421;28;20093;-76
2023/04/24 13:24:17;;;;;;;0.38;0.38;;;;;;;;;;4960503;28;20046;-76
2023/04/24 13:26:43;;;;;;;0.40;0.30;;;;;;;;;;4963470;28;20050;-76
2023/04/24 13:29:09;;;;;;;0.30;0.30;;;;;;;;;;4927785;28;20039;-76
2023/04/24 13:31:34;;;;;;;0.30;0.30;;;;;;;;;;4938763;28;20125;-76
2023/04/24 13:34:00;;;;;;;0.55;0.40;;;;;;;;;;4959093;28;20026;-76
2023/04/24 13:36:26;;;;;;;0.55;0.20;;;;;;;;;;4948820;28;20117;-76
2023/04/24 13:38:53;;;;;;;0.20;0.20;;;;;;;;;;4936073;28;20031;-77
2023/04/24 13:41:19;;;;;;;0.35;0.30;;;;;;;;;;4933660;28;20085;-77
2023/04/24 13:43:44;;;;;;;0.10;0.10;;;;;;;;;;4959925;28;20506;-77
2023/04/24 13:46:10;;;;;;;0.20;0.20;;;;;;;;;;4947952;28;20086;-77
2023/04/24 13:48:35;;;;;;;0.20;0.20;;;;;;;;;;4937878;28;20035;-77
2023/04/24 13:51:00;;;;;;;0.20;0.20;;;;;;;;;;4956865;28;20108;-77
2023/04/24 13:53:26;;;;;;;0.28;0.28;;;;;;;;;;4967722;28;20038;-76
2023/04/24 13:55:51;;;;;;;0.20;0.20;;;;;;;;;;4942666;28;20126;-77
2023/04/24 13:58:17;;;;;;;0.28;0.28;;;;;;;;;;4965214;28;20038;-77
2023/04/24 14:00:42;;;;;;;0.20;0.20;;;;;;;;;;4959574;28;20129;-77
2023/04/24 14:03:07;;;;;;;0.52;0.52;;;;;;;;;;4959740;28;20038;-76
2023/04/24 14:05:33;;;;;;;0.20;0.20;;;;;;;;;;4951623;28;20506;-77
2023/04/24 14:07:58;;;;;;;0.45;0.20;;;;;;;;;;4965656;28;20043;-78
2023/04/24 14:10:24;;;;;;;0.20;0.20;;;;;;;;;;4948362;28;20034;-78
2023/04/24 14:12:50;;;;;;;0.28;0.20;;;;;;;;;;4954101;28;20446;-78
2023/04/24 14:15:16;;;;;;;0.25;0.22;;;;;;;;;;4948320;28;20069;-77
2023/04/24 14:17:42;;;;;;;0.10;0.10;;;;;;;;;;4941783;28;20051;-77
2023/04/24 14:20:08;;;;;;;1.38;0.20;;;;;;;;;;4951693;28;20036;-77
2023/04/24 14:22:34;;;;;;;0.43;0.28;;;;;;;;;;4974787;28;20036;-77
2023/04/24 14:24:59;;;;;;;0.20;0.20;;;;;;;;;;4957140;28;20407;-78
2023/04/24 14:27:26;;;;;;;0.20;0.20;;;;;;;;;;4956746;28;20156;-77
2023/04/24 14:29:51;;;;;;;0.30;0.30;;;;;;;;;;4964696;28;20038;-77
2023/04/24 14:32:17;;;;;;;0.38;0.35;;;;;;;;;;4966978;28;20049;-77
2023/04/24 14:34:42;;;;;;;0.30;0.30;;;;;;;;;;4971733;28;20109;-78
2023/04/24 14:37:08;;;;;;;0.30;0.30;;;;;;;;;;4973843;28;20061;-78
2023/04/24 14:39:33;;;;;;;0.30;0.30;;;;;;;;;;4960039;28;20592;-78